createdAt,value
2019-01-19T00:00:16.810Z,92.80
2019-01-19T00:02:57.738Z,93.20
2019-01-19T00:05:38.826Z,92.90
2019-01-19T00:08:19.253Z,92.40
2019-01-19T00:11:00.134Z,92.00
2019-01-19T00:13:41.141Z,92.60
2019-01-19T00:16:21.620Z,93.10
2019-01-19T00:19:02.723Z,93.10
2019-01-19T00:21:45.802Z,94.00
2019-01-19T00:24:52.978Z,94.40
2019-01-19T00:28:00.090Z,95.10
2019-01-19T00:31:07.182Z,94.80
2019-01-19T00:34:14.366Z,95.30
2019-01-19T00:36:55.341Z,94.90
2019-01-19T00:39:35.962Z,94.40
2019-01-19T00:42:16.937Z,94.40
2019-01-19T00:44:58.090Z,94.10
2019-01-19T00:47:38.798Z,94.20
2019-01-19T00:50:19.397Z,93.80
2019-01-19T00:53:00.075Z,93.40
2019-01-19T00:55:41.061Z,93.90
2019-01-19T00:58:22.292Z,93.40
2019-01-19T01:01:03.118Z,93.60
2019-01-19T01:03:44.309Z,93.60
2019-01-19T01:06:24.978Z,93.10
2019-01-19T01:09:05.533Z,92.90
2019-01-19T01:11:46.878Z,93.90
2019-01-19T01:14:27.638Z,94.70
2019-01-19T01:17:08.997Z,95.10
2019-01-19T01:19:49.242Z,95.20
2019-01-19T01:22:30.522Z,95.40
2019-01-19T01:25:11.271Z,95.60
2019-01-19T01:27:51.669Z,95.90
2019-01-19T01:30:32.071Z,95.90
2019-01-19T01:33:12.767Z,95.70
2019-01-19T01:35:53.739Z,95.70
2019-01-19T01:38:34.730Z,95.50
2019-01-19T01:41:15.899Z,95.70
2019-01-19T01:43:56.433Z,95.70
2019-01-19T01:46:37.318Z,95.70
2019-01-19T01:49:21.705Z,96.00
2019-01-19T01:52:05.563Z,96.10
2019-01-19T01:54:46.309Z,96.30
2019-01-19T01:57:27.099Z,96.30
2019-01-19T02:00:07.682Z,96.60
2019-01-19T02:02:48.614Z,96.70
2019-01-19T02:05:29.454Z,96.30
2019-01-19T02:08:10.154Z,95.80
2019-01-19T02:10:51.243Z,95.70
2019-01-19T02:13:32.003Z,95.40
2019-01-19T02:16:12.887Z,95.40
2019-01-19T02:18:53.908Z,94.90
2019-01-19T02:21:34.398Z,95.30
2019-01-19T02:24:15.446Z,95.10
2019-01-19T02:26:55.907Z,94.90
2019-01-19T02:29:37.186Z,94.90
2019-01-19T02:32:17.694Z,95.10
2019-01-19T02:34:58.814Z,94.50
2019-01-19T02:37:39.354Z,94.40
2019-01-19T02:40:20.298Z,95.00
2019-01-19T02:43:00.986Z,94.80
2019-01-19T02:45:42.214Z,94.50
2019-01-19T02:48:22.894Z,94.50
2019-01-19T02:51:03.622Z,94.40
2019-01-19T02:53:44.845Z,94.80
2019-01-19T02:56:25.778Z,94.90
2019-01-19T02:59:07.048Z,94.60
2019-01-19T03:01:47.498Z,94.70
2019-01-19T03:04:28.175Z,95.30
2019-01-19T03:07:09.090Z,95.40
2019-01-19T03:09:50.267Z,95.50
2019-01-19T03:12:31.316Z,95.90
2019-01-19T03:15:11.869Z,96.20
2019-01-19T03:17:52.674Z,96.20
2019-01-19T03:20:33.444Z,96.20
2019-01-19T03:23:14.214Z,95.80
2019-01-19T03:25:54.821Z,95.50
2019-01-19T03:28:35.784Z,95.50
2019-01-19T03:31:16.537Z,95.00
2019-01-19T03:33:57.273Z,94.50
2019-01-19T03:36:37.847Z,94.50
2019-01-19T03:39:18.433Z,94.30
2019-01-19T03:41:59.421Z,94.10
2019-01-19T03:44:40.345Z,93.90
2019-01-19T03:47:21.406Z,93.90
2019-01-19T03:50:01.735Z,93.30
2019-01-19T03:52:42.662Z,93.70
2019-01-19T03:55:23.749Z,93.80
2019-01-19T03:58:04.626Z,93.10
2019-01-19T04:00:45.342Z,93.80
2019-01-19T04:03:26.781Z,94.60
2019-01-19T04:06:12.612Z,94.70
2019-01-19T04:08:50.531Z,94.20
2019-01-19T04:11:34.505Z,94.60
2019-01-19T04:14:15.430Z,94.60
2019-01-19T04:16:56.326Z,94.40
2019-01-19T04:19:36.927Z,94.10
2019-01-19T04:22:17.782Z,93.80
2019-01-19T04:24:58.884Z,93.60
2019-01-19T04:27:39.795Z,94.10
2019-01-19T04:30:20.778Z,94.50
2019-01-19T04:33:01.982Z,94.70
2019-01-19T04:35:42.306Z,94.90
2019-01-19T04:38:21.034Z,95.30
2019-01-19T04:41:08.815Z,95.60
2019-01-19T04:43:56.903Z,95.70
2019-01-19T04:46:44.682Z,96.00
2019-01-19T04:49:32.786Z,95.50
2019-01-19T04:52:20.566Z,94.20
2019-01-19T04:58:16.921Z,95.10
2019-01-19T05:01:04.694Z,95.00
2019-01-19T05:03:52.473Z,94.90
2019-01-19T05:06:40.582Z,95.30
2019-01-19T05:12:21.517Z,95.10
2019-01-19T05:15:28.635Z,95.30
2019-01-19T05:29:54.345Z,95.40
2019-01-19T05:32:42.105Z,95.80
2019-01-19T05:35:30.234Z,95.30
2019-01-19T05:38:11.227Z,94.90
2019-01-19T05:40:51.954Z,94.50
2019-01-19T05:43:32.718Z,94.60
2019-01-19T05:46:21.213Z,94.70
2019-01-19T05:48:56.554Z,93.90
2019-01-19T05:51:37.219Z,93.90
2019-01-19T05:54:17.959Z,93.20
2019-01-19T05:56:58.613Z,93.30
2019-01-19T05:59:39.587Z,94.00
2019-01-19T06:02:22.306Z,94.00
2019-01-19T06:05:03.486Z,93.50
2019-01-19T06:07:44.678Z,93.80
2019-01-19T06:10:23.790Z,94.00
2019-01-19T06:13:11.559Z,94.00
2019-01-19T06:15:59.334Z,92.90
2019-01-19T06:24:40.153Z,94.20
2019-01-19T06:27:28.266Z,93.50
2019-01-19T06:30:35.643Z,93.30
2019-01-19T06:33:23.449Z,93.30
2019-01-19T06:36:11.274Z,93.20
2019-01-19T06:38:39.993Z,93.70
2019-01-19T06:41:27.774Z,93.10
2019-01-19T06:44:15.563Z,92.90
2019-01-19T06:47:03.339Z,92.90
2019-01-19T06:49:51.190Z,93.50
2019-01-19T06:52:38.979Z,93.30
2019-01-19T06:55:47.722Z,92.90
2019-01-19T06:58:35.830Z,93.20
2019-01-19T07:01:23.630Z,93.00
2019-01-19T07:04:11.408Z,92.90
2019-01-19T07:07:02.900Z,92.90
2019-01-19T07:09:48.745Z,93.70
2019-01-19T07:12:36.858Z,93.20
2019-01-19T07:15:24.806Z,93.00
2019-01-19T07:18:12.587Z,94.20
2019-01-19T07:21:00.371Z,94.80
2019-01-19T07:23:48.138Z,94.30
2019-01-19T07:26:36.239Z,93.80
2019-01-19T07:29:24.014Z,93.60
2019-01-19T07:32:11.857Z,93.40
2019-01-19T07:34:59.635Z,94.00
2019-01-19T07:37:40.726Z,92.40
2019-01-19T07:40:21.511Z,92.50
2019-01-19T07:43:03.225Z,93.00
2019-01-19T07:45:44.002Z,93.60
2019-01-19T07:48:24.694Z,93.90
2019-01-19T07:51:05.998Z,94.00
2019-01-19T07:53:46.482Z,94.20
2019-01-19T07:56:27.390Z,94.60
2019-01-19T07:59:08.165Z,94.10
2019-01-19T08:01:49.226Z,93.90
2019-01-19T08:04:29.752Z,93.90
2019-01-19T08:07:17.090Z,93.90
2019-01-19T08:09:52.702Z,94.50
2019-01-19T08:12:33.449Z,94.80
2019-01-19T08:15:14.373Z,94.70
2019-01-19T08:17:58.606Z,94.40
2019-01-19T08:20:39.717Z,94.10
2019-01-19T08:23:20.238Z,92.90
2019-01-19T08:26:01.127Z,92.60
2019-01-19T08:28:41.860Z,92.50
2019-01-19T08:31:22.186Z,92.30
2019-01-19T08:34:03.313Z,91.70
2019-01-19T08:36:43.894Z,90.80
2019-01-19T08:39:25.173Z,91.20
2019-01-19T08:42:05.827Z,95.40
2019-01-19T08:44:46.769Z,95.90
2019-01-19T08:47:27.687Z,95.80
2019-01-19T08:50:08.927Z,94.10
2019-01-19T08:52:49.571Z,92.10
2019-01-19T08:55:30.234Z,91.10
2019-01-19T08:58:10.870Z,86.00
2019-01-19T09:00:51.327Z,86.50
2019-01-19T09:03:32.182Z,85.60
2019-01-19T09:06:13.249Z,80.10
2019-01-19T09:08:54.222Z,76.60
2019-01-19T09:11:35.313Z,71.10
2019-01-19T09:14:16.007Z,71.40
2019-01-19T09:16:58.193Z,70.70
2019-01-19T09:19:38.791Z,72.80
2019-01-19T09:22:19.523Z,70.40
2019-01-19T09:25:00.335Z,66.90
2019-01-19T09:27:40.929Z,64.30
2019-01-19T09:30:22.050Z,67.30
2019-01-19T09:33:03.182Z,64.50
2019-01-19T09:35:43.782Z,62.50
2019-01-19T09:38:24.238Z,59.40
2019-01-19T09:41:04.950Z,59.70
2019-01-19T09:43:45.873Z,63.20
2019-01-19T09:46:26.661Z,62.70
2019-01-19T09:49:07.324Z,58.60
2019-01-19T09:51:48.408Z,62.00
2019-01-19T09:54:28.655Z,60.90
2019-01-19T09:57:09.585Z,58.40
2019-01-19T09:59:50.283Z,53.50
2019-01-19T10:02:31.183Z,54.60
2019-01-19T10:05:11.909Z,52.40
2019-01-19T10:07:55.989Z,50.70
2019-01-19T10:10:36.917Z,53.00
2019-01-19T10:13:17.496Z,53.70
2019-01-19T10:15:58.010Z,52.70
2019-01-19T10:18:38.990Z,53.10
2019-01-19T10:21:20.081Z,50.60
2019-01-19T10:24:00.557Z,50.50
2019-01-19T10:26:41.325Z,50.30
2019-01-19T10:29:22.390Z,48.30
2019-01-19T10:32:05.818Z,50.00
2019-01-19T10:34:46.870Z,47.20
2019-01-19T10:37:27.660Z,45.40
2019-01-19T10:40:08.729Z,44.30
2019-01-19T10:42:49.467Z,45.00
2019-01-19T10:45:29.938Z,43.40
2019-01-19T10:48:10.718Z,43.30
2019-01-19T10:50:51.186Z,42.20
2019-01-19T10:53:32.389Z,40.00
2019-01-19T10:56:12.810Z,41.70
2019-01-19T10:58:53.735Z,42.60
2019-01-19T11:01:34.410Z,41.10
2019-01-19T11:04:15.566Z,39.50
2019-01-19T11:06:56.243Z,41.00
2019-01-19T11:09:37.514Z,42.70
2019-01-19T11:12:18.213Z,41.70
2019-01-19T11:14:59.420Z,34.50
2019-01-19T11:17:40.106Z,31.80
2019-01-19T11:20:21.327Z,33.20
2019-01-19T11:23:02.358Z,30.80
2019-01-19T11:25:42.913Z,32.30
2019-01-19T11:28:24.122Z,28.70
2019-01-19T11:31:05.489Z,29.30
2019-01-19T11:33:44.434Z,27.50
2019-01-19T11:36:32.217Z,30.50
2019-01-19T11:39:12.495Z,28.10
2019-01-19T11:41:53.033Z,26.80
2019-01-19T11:44:33.542Z,26.00
2019-01-19T11:47:14.021Z,27.20
2019-01-19T11:49:54.479Z,27.30
2019-01-19T11:52:35.171Z,24.60
2019-01-19T11:55:19.494Z,22.90
2019-01-19T11:57:59.758Z,23.00
2019-01-19T12:00:40.461Z,22.80
2019-01-19T12:03:20.990Z,22.40
2019-01-19T12:06:02.194Z,22.30
2019-01-19T12:08:41.046Z,21.20
2019-01-19T12:11:28.818Z,18.20
2019-01-19T12:17:23.805Z,21.50
2019-01-19T12:20:30.918Z,21.50
2019-01-19T12:23:18.677Z,21.30
2019-01-19T12:29:09.276Z,19.00
2019-01-19T12:31:57.294Z,18.30
2019-01-19T12:34:45.058Z,20.10
2019-01-19T12:37:26.186Z,18.30
2019-01-19T12:40:06.866Z,19.70
2019-01-19T12:42:47.787Z,18.50
2019-01-19T12:45:28.515Z,18.60
2019-01-19T12:48:09.218Z,15.50
2019-01-19T12:50:50.337Z,16.10
2019-01-19T12:53:30.941Z,15.60
2019-01-19T12:56:11.677Z,17.40
2019-01-19T12:58:52.063Z,13.80
2019-01-19T13:01:32.795Z,15.00
2019-01-19T13:04:13.899Z,13.30
2019-01-19T13:06:54.706Z,12.90
2019-01-19T13:09:37.217Z,11.60
2019-01-19T13:12:18.440Z,11.70
2019-01-19T13:14:59.207Z,12.70
2019-01-19T13:17:40.015Z,12.40
2019-01-19T13:20:20.831Z,10.60
2019-01-19T13:23:01.415Z,11.40
2019-01-19T13:25:42.207Z,11.50
2019-01-19T13:28:22.902Z,13.20
2019-01-19T13:31:03.451Z,12.40
2019-01-19T13:33:44.426Z,11.50
2019-01-19T13:36:25.094Z,12.20
2019-01-19T13:39:06.142Z,11.20
2019-01-19T13:41:46.621Z,14.30
2019-01-19T13:44:27.739Z,13.00
2019-01-19T13:47:08.706Z,12.40
2019-01-19T13:49:49.743Z,15.40
2019-01-19T13:52:30.379Z,13.70
2019-01-19T13:55:11.223Z,14.40
2019-01-19T13:57:51.731Z,15.10
2019-01-19T14:00:32.664Z,14.50
2019-01-19T14:03:13.938Z,13.00
2019-01-19T14:05:54.934Z,11.80
2019-01-19T14:08:35.821Z,12.40
2019-01-19T14:11:16.914Z,11.90
2019-01-19T14:13:57.708Z,10.90
2019-01-19T14:16:38.714Z,11.10
2019-01-19T14:19:21.621Z,12.90
2019-01-19T14:22:02.614Z,12.40
2019-01-19T14:24:43.531Z,13.60
2019-01-19T14:27:24.038Z,12.30
2019-01-19T14:30:04.992Z,13.30
2019-01-19T14:32:45.563Z,13.90
2019-01-19T14:35:54.070Z,15.80
2019-01-19T14:38:36.698Z,19.90
2019-01-19T14:41:17.521Z,18.20
2019-01-19T14:43:58.486Z,19.10
2019-01-19T14:46:39.289Z,16.90
2019-01-19T14:49:19.862Z,16.80
2019-01-19T14:52:00.306Z,18.30
2019-01-19T14:54:40.984Z,18.00
2019-01-19T14:57:21.610Z,16.80
2019-01-19T15:00:02.850Z,16.70
2019-01-19T15:02:43.530Z,17.80
2019-01-19T15:05:24.921Z,16.50
2019-01-19T15:08:05.683Z,17.80
2019-01-19T15:10:46.506Z,17.30
2019-01-19T15:13:26.798Z,18.60
2019-01-19T15:16:08.025Z,18.70
2019-01-19T15:18:49.070Z,18.60
2019-01-19T15:21:30.081Z,21.70
2019-01-19T15:24:10.631Z,19.60
2019-01-19T15:26:51.407Z,20.20
2019-01-19T15:29:33.325Z,19.60
2019-01-19T15:32:14.197Z,20.30
2019-01-19T15:34:54.923Z,21.60
2019-01-19T15:37:35.931Z,23.20
2019-01-19T15:40:16.376Z,23.80
2019-01-19T15:42:57.186Z,23.20
2019-01-19T15:45:37.970Z,23.70
2019-01-19T15:48:18.887Z,23.60
2019-01-19T15:50:59.537Z,22.40
2019-01-19T15:53:40.570Z,22.00
2019-01-19T15:56:21.347Z,27.90
2019-01-19T15:59:01.894Z,30.30
2019-01-19T16:01:42.679Z,29.70
2019-01-19T16:04:23.449Z,30.20
2019-01-19T16:07:04.389Z,34.30
2019-01-19T16:09:45.157Z,35.80
2019-01-19T16:12:26.139Z,36.80
2019-01-19T16:15:07.123Z,37.60
2019-01-19T16:17:47.997Z,37.40
2019-01-19T16:20:28.651Z,40.30
2019-01-19T16:23:09.331Z,31.20
2019-01-19T16:25:50.343Z,29.40
2019-01-19T16:28:30.694Z,29.80
2019-01-19T16:31:11.890Z,31.90
2019-01-19T16:33:52.550Z,34.30
2019-01-19T16:36:33.638Z,32.90
2019-01-19T16:39:14.426Z,34.10
2019-01-19T16:41:55.774Z,30.00
2019-01-19T16:44:36.357Z,30.60
2019-01-19T16:47:16.945Z,28.40
2019-01-19T16:49:57.957Z,28.40
2019-01-19T16:52:39.011Z,30.20
2019-01-19T16:55:19.458Z,29.90
2019-01-19T16:58:03.457Z,29.30
2019-01-19T17:00:44.202Z,29.10
2019-01-19T17:03:25.986Z,27.80
2019-01-19T17:06:07.010Z,28.10
2019-01-19T17:08:47.658Z,26.90
2019-01-19T17:11:28.503Z,27.60
2019-01-19T17:14:09.738Z,28.30
2019-01-19T17:16:50.282Z,28.60
2019-01-19T17:19:31.226Z,27.90
2019-01-19T17:22:11.971Z,26.90
2019-01-19T17:24:52.501Z,28.40
2019-01-19T17:27:33.575Z,28.60
2019-01-19T17:30:14.351Z,27.70
2019-01-19T17:32:55.143Z,28.60
2019-01-19T17:35:37.146Z,29.30
2019-01-19T17:38:17.728Z,28.90
2019-01-19T17:40:58.662Z,29.30
2019-01-19T17:43:39.458Z,28.60
2019-01-19T17:46:20.153Z,29.30
2019-01-19T17:49:00.677Z,28.10
2019-01-19T17:51:41.357Z,28.80
2019-01-19T17:54:22.421Z,29.10
2019-01-19T17:57:03.493Z,29.40
2019-01-19T17:59:44.874Z,29.20
2019-01-19T18:02:25.505Z,28.40
2019-01-19T18:05:05.957Z,29.20
2019-01-19T18:07:46.467Z,28.60
2019-01-19T18:10:26.985Z,32.00
2019-01-19T18:13:07.429Z,31.50
2019-01-19T18:15:48.140Z,30.00
2019-01-19T18:18:29.272Z,31.70
2019-01-19T18:21:09.986Z,30.70
2019-01-19T18:23:50.421Z,33.50
2019-01-19T18:26:31.267Z,30.50
2019-01-19T18:29:14.609Z,30.20
2019-01-19T18:32:23.137Z,33.00
2019-01-19T18:35:30.238Z,31.90
2019-01-19T18:38:37.326Z,33.00
2019-01-19T18:41:18.137Z,32.30
2019-01-19T18:43:58.673Z,32.20
2019-01-19T18:46:39.843Z,32.70
2019-01-19T18:49:20.432Z,33.00
2019-01-19T18:52:01.320Z,33.10
2019-01-19T18:54:42.395Z,35.30
2019-01-19T18:57:23.182Z,33.90
2019-01-19T19:00:05.062Z,35.00
2019-01-19T19:02:45.691Z,35.10
2019-01-19T19:05:26.421Z,36.00
2019-01-19T19:08:07.658Z,36.80
2019-01-19T19:10:48.446Z,35.90
2019-01-19T19:13:28.958Z,35.40
2019-01-19T19:16:10.076Z,38.70
2019-01-19T19:18:51.198Z,36.80
2019-01-19T19:21:32.050Z,38.90
2019-01-19T19:24:12.654Z,35.80
2019-01-19T19:26:53.690Z,39.30
2019-01-19T19:29:34.678Z,36.30
2019-01-19T19:32:15.341Z,38.10
2019-01-19T19:37:46.718Z,49.40
2019-01-19T19:40:27.486Z,41.70
2019-01-19T19:43:08.365Z,38.00
2019-01-19T19:45:49.403Z,37.00
2019-01-19T19:48:30.518Z,37.90
2019-01-19T19:51:11.826Z,39.90
2019-01-19T19:53:52.544Z,39.80
2019-01-19T19:56:33.184Z,42.40
2019-01-19T19:59:13.899Z,45.50
2019-01-19T20:01:54.668Z,43.40
2019-01-19T20:04:35.066Z,43.30
2019-01-19T20:07:15.809Z,41.60
2019-01-19T20:09:56.614Z,42.60
2019-01-19T20:12:37.422Z,50.80
2019-01-19T20:15:17.766Z,44.30
2019-01-19T20:17:58.205Z,42.60
2019-01-19T20:20:38.701Z,41.70
2019-01-19T20:23:19.642Z,47.70
2019-01-19T20:26:00.286Z,45.30
2019-01-19T20:28:41.178Z,46.70
2019-01-19T20:31:22.198Z,45.10
2019-01-19T20:34:02.807Z,46.50
2019-01-19T20:36:43.769Z,45.00
2019-01-19T20:39:24.418Z,44.10
2019-01-19T20:42:05.032Z,43.10
2019-01-19T20:44:45.449Z,43.90
2019-01-19T20:47:26.686Z,42.60
2019-01-19T20:50:07.408Z,44.50
2019-01-19T20:52:48.241Z,43.00
2019-01-19T20:55:28.889Z,42.90
2019-01-19T20:58:12.894Z,43.70
2019-01-19T21:00:53.795Z,71.20
2019-01-19T21:03:34.886Z,58.70
2019-01-19T21:06:15.718Z,53.40
2019-01-19T21:08:56.491Z,48.70
2019-01-19T21:11:37.065Z,49.50
2019-01-19T21:14:17.883Z,51.70
2019-01-19T21:16:59.166Z,55.90
2019-01-19T21:19:39.754Z,53.30
2019-01-19T21:22:20.251Z,50.70
2019-01-19T21:25:00.840Z,48.90
2019-01-19T21:27:42.181Z,50.30
2019-01-19T21:30:24.471Z,48.10
2019-01-19T21:33:04.827Z,49.00
2019-01-19T21:35:45.193Z,48.90
2019-01-19T21:38:25.856Z,48.50
2019-01-19T21:41:06.475Z,48.10
2019-01-19T21:43:47.190Z,48.10
2019-01-19T21:46:28.498Z,47.20
2019-01-19T21:49:09.038Z,47.50
2019-01-19T21:51:49.721Z,48.50
2019-01-19T21:54:30.269Z,48.80
2019-01-19T21:57:10.890Z,53.10
2019-01-19T21:59:51.720Z,74.90
2019-01-19T22:02:32.942Z,67.20
2019-01-19T22:05:13.961Z,63.40
2019-01-19T22:07:54.730Z,61.30
2019-01-19T22:10:35.237Z,61.10
2019-01-19T22:13:15.657Z,64.30
2019-01-19T22:15:56.308Z,61.10
2019-01-19T22:18:36.669Z,59.40
2019-01-19T22:21:17.502Z,59.60
2019-01-19T22:23:59.903Z,60.20
2019-01-19T22:26:41.026Z,59.80
2019-01-19T22:29:21.923Z,65.30
2019-01-19T22:32:02.687Z,62.40
2019-01-19T22:34:43.360Z,61.10
2019-01-19T22:37:24.418Z,60.80
2019-01-19T22:40:05.215Z,61.20
2019-01-19T22:42:46.002Z,60.00
2019-01-19T22:45:26.602Z,59.30
2019-01-19T22:48:07.466Z,59.40
2019-01-19T22:50:48.034Z,61.10
2019-01-19T22:53:28.563Z,60.00
2019-01-19T22:56:09.053Z,61.10
2019-01-19T22:58:49.670Z,62.40
2019-01-19T23:01:31.007Z,61.20
2019-01-19T23:04:11.843Z,63.50
2019-01-19T23:06:52.586Z,61.70
2019-01-19T23:09:33.153Z,68.00
2019-01-19T23:12:13.814Z,68.30
2019-01-19T23:14:54.433Z,64.60
2019-01-19T23:17:38.249Z,63.70
2019-01-19T23:20:18.736Z,63.20
2019-01-19T23:22:59.488Z,64.70
2019-01-19T23:25:39.974Z,65.00
2019-01-19T23:28:21.209Z,65.00
2019-01-19T23:31:02.119Z,65.40
2019-01-19T23:33:42.586Z,64.50
2019-01-19T23:36:23.682Z,64.70
2019-01-19T23:39:04.262Z,66.20
2019-01-19T23:41:45.126Z,65.50
2019-01-19T23:44:28.626Z,63.70
2019-01-19T23:47:10.062Z,63.60
2019-01-19T23:49:50.845Z,64.80
2019-01-19T23:52:31.550Z,75.40
2019-01-19T23:55:12.023Z,76.40
2019-01-19T23:57:53.182Z,75.00
